createdAt,value
2024-03-12T00:01:09.076Z,0.80
2024-03-12T00:03:36.664Z,0.90
2024-03-12T00:06:04.422Z,0.90
2024-03-12T00:08:31.146Z,1.08
2024-03-12T00:10:58.514Z,2.25
2024-03-12T00:13:25.412Z,0.60
2024-03-12T00:15:52.170Z,1.77
2024-03-12T00:18:18.877Z,2.30
2024-03-12T00:20:46.881Z,1.02
2024-03-12T00:23:13.740Z,1.80
2024-03-12T00:25:41.883Z,1.45
2024-03-12T00:28:09.894Z,1.95
2024-03-12T00:30:39.243Z,2.20
2024-03-12T00:33:06.829Z,1.27
2024-03-12T00:35:35.328Z,1.80
2024-03-12T00:38:05.287Z,1.98
2024-03-12T00:40:35.460Z,1.98
2024-03-12T00:43:04.062Z,2.88
2024-03-12T00:45:38.073Z,1.20
2024-03-12T00:48:07.021Z,4.43
2024-03-12T00:50:37.887Z,1.10
2024-03-12T00:53:04.957Z,0.90
2024-03-12T00:55:32.145Z,1.50
2024-03-12T00:58:00.053Z,2.70
2024-03-12T01:00:29.321Z,2.75
2024-03-12T01:02:59.284Z,1.27
2024-03-12T01:05:27.462Z,1.55
2024-03-12T01:07:55.578Z,1.00
2024-03-12T01:10:22.845Z,0.80
2024-03-12T01:12:52.873Z,1.27
2024-03-12T01:15:20.132Z,3.88
2024-03-12T01:17:47.495Z,2.72
2024-03-12T01:20:17.839Z,1.95
2024-03-12T01:22:44.948Z,1.02
2024-03-12T01:25:12.644Z,0.82
2024-03-12T01:27:40.495Z,0.98
2024-03-12T01:30:08.288Z,0.93
2024-03-12T01:32:40.029Z,3.30
2024-03-12T01:35:09.438Z,1.23
2024-03-12T01:37:37.738Z,1.73
2024-03-12T01:40:20.475Z,0.70
2024-03-12T01:42:50.911Z,0.75
2024-03-12T01:45:19.280Z,0.70
2024-03-12T01:47:46.813Z,0.65
2024-03-12T01:50:13.976Z,0.50
2024-03-12T01:52:40.691Z,1.15
2024-03-12T01:55:08.007Z,0.82
2024-03-12T01:57:34.957Z,0.50
2024-03-12T02:00:11.100Z,0.38
2024-03-12T02:02:38.676Z,0.50
2024-03-12T02:05:06.640Z,0.52
2024-03-12T02:07:35.238Z,0.55
2024-03-12T02:10:02.290Z,0.50
2024-03-12T02:12:29.119Z,0.50
2024-03-12T02:14:55.754Z,0.60
2024-03-12T02:17:23.136Z,0.50
2024-03-12T02:19:49.884Z,0.57
2024-03-12T02:22:16.520Z,0.77
2024-03-12T02:24:43.153Z,0.50
2024-03-12T02:27:10.573Z,0.60
2024-03-12T02:29:37.382Z,2.03
2024-03-12T02:32:04.444Z,0.73
2024-03-12T02:34:31.054Z,0.82
2024-03-12T02:36:57.771Z,0.50
2024-03-12T02:39:24.512Z,1.23
2024-03-12T02:41:51.506Z,0.50
2024-03-12T02:44:18.473Z,1.05
2024-03-12T02:46:45.980Z,0.30
2024-03-12T02:49:15.218Z,0.35
2024-03-12T02:51:42.013Z,0.47
2024-03-12T02:54:08.651Z,1.73
2024-03-12T02:56:35.287Z,0.50
2024-03-12T02:59:02.656Z,0.30
2024-03-12T03:01:29.447Z,0.40
2024-03-12T03:03:58.670Z,1.02
2024-03-12T03:06:25.800Z,1.75
2024-03-12T03:08:52.592Z,0.50
2024-03-12T03:11:19.338Z,0.40
2024-03-12T03:13:46.132Z,0.40
2024-03-12T03:16:13.071Z,0.40
2024-03-12T03:18:39.752Z,0.40
2024-03-12T03:21:08.391Z,0.85
2024-03-12T03:23:40.550Z,0.50
2024-03-12T03:28:33.909Z,0.30
2024-03-12T03:31:01.460Z,0.55
2024-03-12T03:33:28.452Z,0.80
2024-03-12T03:35:55.407Z,0.57
2024-03-12T03:38:22.493Z,0.40
2024-03-12T03:40:49.295Z,0.57
2024-03-12T03:43:16.023Z,1.00
2024-03-12T03:45:42.729Z,0.30
2024-03-12T03:48:10.165Z,0.43
2024-03-12T03:50:37.055Z,0.50
2024-03-12T03:53:03.703Z,0.40
2024-03-12T03:55:30.336Z,0.40
2024-03-12T03:57:56.955Z,0.50
2024-03-12T04:00:29.755Z,0.55
2024-03-12T04:02:57.861Z,0.40
2024-03-12T04:05:24.592Z,0.35
2024-03-12T04:07:51.914Z,0.65
2024-03-12T04:10:18.612Z,0.40
2024-03-12T04:12:46.649Z,0.32
2024-03-12T04:15:14.144Z,0.50
2024-03-12T04:17:44.565Z,1.75
2024-03-12T04:20:12.554Z,0.47
2024-03-12T04:22:40.038Z,5.22
2024-03-12T04:25:08.434Z,1.10
2024-03-12T04:27:39.061Z,1.23
2024-03-12T04:30:06.734Z,0.68
2024-03-12T04:32:33.645Z,0.40
2024-03-12T04:35:00.380Z,0.32
2024-03-12T04:37:32.816Z,0.25
2024-03-12T04:40:07.757Z,0.40
2024-03-12T04:42:39.064Z,1.13
2024-03-12T04:45:07.868Z,0.65
2024-03-12T04:47:36.688Z,0.40
2024-03-12T04:50:04.285Z,0.57
2024-03-12T04:52:31.147Z,1.05
2024-03-12T04:54:58.250Z,0.40
2024-03-12T04:57:25.143Z,0.52
2024-03-12T04:59:51.824Z,2.92
2024-03-12T05:02:18.429Z,0.20
2024-03-12T05:04:45.153Z,0.40
2024-03-12T05:07:13.006Z,0.40
2024-03-12T05:09:39.846Z,0.30
2024-03-12T05:12:06.630Z,0.80
2024-03-12T05:14:33.237Z,0.73
2024-03-12T05:17:00.439Z,0.77
2024-03-12T05:19:27.384Z,1.80
2024-03-12T05:21:54.101Z,0.30
2024-03-12T05:24:20.969Z,0.38
2024-03-12T05:26:50.501Z,0.30
2024-03-12T05:29:18.770Z,0.30
2024-03-12T05:31:45.604Z,4.28
2024-03-12T05:34:20.150Z,4.75
2024-03-12T05:36:50.047Z,13.50
2024-03-12T05:39:45.959Z,8.70
2024-03-12T05:42:31.227Z,8.10
2024-03-12T05:45:16.402Z,4.93
2024-03-12T05:48:02.746Z,3.90
2024-03-12T05:50:29.437Z,4.00
2024-03-12T05:52:56.092Z,5.88
2024-03-12T05:55:22.789Z,5.15
2024-03-12T05:57:49.424Z,2.55
2024-03-12T06:00:16.162Z,3.65
2024-03-12T06:02:43.066Z,3.25
2024-03-12T06:05:15.996Z,4.65
2024-03-12T06:07:43.509Z,4.40
2024-03-12T06:10:10.486Z,4.65
2024-03-12T06:12:37.810Z,7.57
2024-03-12T06:15:08.003Z,4.18
2024-03-12T06:17:34.881Z,2.17
2024-03-12T06:20:01.586Z,3.17
2024-03-12T06:22:28.398Z,3.67
2024-03-12T06:24:55.199Z,1.92
2024-03-12T06:27:22.493Z,0.98
2024-03-12T06:29:53.141Z,4.10
2024-03-12T06:32:22.716Z,13.85
2024-03-12T06:34:49.540Z,8.43
2024-03-12T06:37:16.843Z,8.30
2024-03-12T06:39:45.790Z,6.10
2024-03-12T06:42:13.804Z,3.05
2024-03-12T06:44:43.593Z,4.90
2024-03-12T06:47:11.516Z,3.85
2024-03-12T06:49:39.886Z,5.22
2024-03-12T06:52:08.012Z,5.32
2024-03-12T06:54:36.248Z,4.78
2024-03-12T06:57:05.553Z,3.10
2024-03-12T06:59:34.009Z,0.60
2024-03-12T07:02:04.599Z,1.10
2024-03-12T07:04:44.605Z,3.72
2024-03-12T07:07:12.813Z,1.98
2024-03-12T07:09:42.237Z,1.33
2024-03-12T07:12:09.765Z,2.25
2024-03-12T07:14:56.254Z,0.57
2024-03-12T07:17:23.870Z,0.85
2024-03-12T07:19:50.905Z,2.05
2024-03-12T07:22:18.823Z,5.60
2024-03-12T07:24:45.655Z,3.63
2024-03-12T07:27:14.611Z,4.25
2024-03-12T07:29:44.522Z,0.50
2024-03-12T07:32:11.478Z,2.92
2024-03-12T07:34:40.420Z,1.17
2024-03-12T07:37:07.911Z,1.48
2024-03-12T07:39:37.500Z,0.50
2024-03-12T07:42:13.622Z,0.50
2024-03-12T07:44:42.344Z,1.10
2024-03-12T07:47:11.092Z,1.23
2024-03-12T07:49:38.303Z,1.17
2024-03-12T07:52:06.961Z,2.13
2024-03-12T07:54:34.614Z,1.65
2024-03-12T07:57:01.725Z,0.50
2024-03-12T07:59:31.475Z,0.40
2024-03-12T08:01:58.963Z,1.08
2024-03-12T08:04:29.015Z,0.65
2024-03-12T08:06:56.146Z,1.70
2024-03-12T08:09:24.242Z,0.93
2024-03-12T08:11:50.923Z,1.13
2024-03-12T08:14:18.791Z,2.22
2024-03-12T08:16:45.723Z,3.42
2024-03-12T08:19:12.504Z,0.80
2024-03-12T08:21:40.250Z,0.75
2024-03-12T08:24:07.093Z,0.52
2024-03-12T08:26:33.783Z,0.50
2024-03-12T08:29:00.517Z,3.42
2024-03-12T08:31:33.322Z,0.55
2024-03-12T08:34:06.176Z,1.30
2024-03-12T08:36:34.577Z,2.05
2024-03-12T08:39:02.026Z,3.13
2024-03-12T08:41:28.632Z,1.83
2024-03-12T08:43:55.394Z,1.25
2024-03-12T08:46:22.060Z,0.88
2024-03-12T08:48:48.758Z,2.17
2024-03-12T08:51:15.613Z,0.55
2024-03-12T08:53:42.391Z,0.63
2024-03-12T08:56:10.491Z,6.60
2024-03-12T08:58:37.297Z,0.75
2024-03-12T09:01:05.887Z,2.00
2024-03-12T09:03:32.910Z,0.80
2024-03-12T09:06:00.508Z,1.45
2024-03-12T09:08:27.281Z,1.48
2024-03-12T09:10:54.554Z,1.55
2024-03-12T09:13:21.466Z,1.80
2024-03-12T09:15:52.711Z,3.05
2024-03-12T09:18:24.437Z,1.30
2024-03-12T09:20:53.781Z,2.13
2024-03-12T09:23:20.428Z,1.15
2024-03-12T09:25:48.223Z,5.68
2024-03-12T09:28:18.012Z,1.52
2024-03-12T09:30:44.918Z,1.42
2024-03-12T09:33:12.115Z,0.80
2024-03-12T09:35:39.169Z,2.10
2024-03-12T09:38:10.625Z,1.52
2024-03-12T09:40:46.332Z,2.58
2024-03-12T09:43:14.726Z,1.27
2024-03-12T09:45:41.818Z,1.23
2024-03-12T09:48:09.545Z,4.95
2024-03-12T09:50:36.849Z,1.10
2024-03-12T09:53:03.571Z,3.80
2024-03-12T09:55:33.069Z,0.45
2024-03-12T09:57:59.881Z,0.70
2024-03-12T10:00:29.304Z,1.58
2024-03-12T10:03:00.962Z,0.75
2024-03-12T10:05:29.053Z,3.10
2024-03-12T10:08:15.542Z,1.73
2024-03-12T10:10:46.566Z,0.40
2024-03-12T10:13:16.343Z,0.35
2024-03-12T10:16:05.494Z,1.55
2024-03-12T10:18:38.267Z,1.65
2024-03-12T10:21:05.124Z,0.70
2024-03-12T10:23:34.736Z,3.00
2024-03-12T10:26:14.166Z,2.65
2024-03-12T10:28:41.515Z,1.40
2024-03-12T10:31:13.458Z,1.70
2024-03-12T10:36:13.768Z,2.20
2024-03-12T10:38:41.699Z,3.15
2024-03-12T10:41:18.871Z,1.08
2024-03-12T10:43:47.314Z,2.60
2024-03-12T10:46:21.135Z,1.45
2024-03-12T10:48:52.247Z,0.88
2024-03-12T10:51:20.463Z,0.63
2024-03-12T10:53:54.476Z,1.52
2024-03-12T10:56:22.910Z,0.90
2024-03-12T10:58:50.363Z,0.65
2024-03-12T11:01:21.197Z,0.95
2024-03-12T11:03:49.328Z,0.85
2024-03-12T11:06:16.371Z,2.90
2024-03-12T11:08:47.063Z,2.80
2024-03-12T11:11:15.474Z,1.55
2024-03-12T11:13:43.091Z,1.67
2024-03-12T11:16:16.879Z,4.15
2024-03-12T11:18:44.448Z,3.97
2024-03-12T11:21:19.921Z,0.85
2024-03-12T11:23:49.421Z,0.55
2024-03-12T11:26:16.443Z,0.70
2024-03-12T11:28:51.244Z,0.50
2024-03-12T11:31:21.733Z,1.80
2024-03-12T11:33:50.711Z,0.40
2024-03-12T11:36:41.767Z,0.75
2024-03-12T11:39:24.310Z,2.75
2024-03-12T11:42:09.444Z,0.90
2024-03-12T11:44:56.451Z,0.80
2024-03-12T11:47:37.968Z,3.72
2024-03-12T11:50:25.702Z,0.57
2024-03-12T11:52:52.403Z,1.75
2024-03-12T11:55:59.400Z,0.50
2024-03-12T11:58:28.800Z,0.70
2024-03-12T12:00:56.322Z,5.13
2024-03-12T12:03:24.341Z,1.27
2024-03-12T12:05:55.420Z,3.10
2024-03-12T12:08:23.113Z,1.35
2024-03-12T12:11:01.536Z,0.82
2024-03-12T12:13:30.531Z,0.70
2024-03-12T12:16:05.534Z,3.50
2024-03-12T12:18:34.708Z,0.60
2024-03-12T12:21:04.326Z,0.52
2024-03-12T12:23:31.410Z,0.55
2024-03-12T12:25:58.507Z,2.75
2024-03-12T12:28:26.627Z,2.05
2024-03-12T12:30:56.503Z,1.65
2024-03-12T12:33:26.262Z,0.32
2024-03-12T12:35:55.473Z,0.75
2024-03-12T12:38:23.110Z,0.73
2024-03-12T12:40:49.975Z,0.90
2024-03-12T12:43:21.029Z,2.45
2024-03-12T12:45:47.812Z,0.50
2024-03-12T12:48:15.776Z,0.55
2024-03-12T12:50:43.218Z,2.67
2024-03-12T12:53:10.932Z,0.65
2024-03-12T12:55:40.583Z,0.70
2024-03-12T12:58:08.861Z,3.25
2024-03-12T13:00:40.325Z,0.52
2024-03-12T13:03:13.419Z,0.93
2024-03-12T13:05:42.820Z,0.50
2024-03-12T13:08:30.840Z,0.68
2024-03-12T13:11:10.030Z,0.98
2024-03-12T13:13:42.198Z,0.45
2024-03-12T13:16:19.296Z,0.40
2024-03-12T13:18:47.930Z,0.40
2024-03-12T13:21:16.483Z,0.38
2024-03-12T13:23:46.996Z,0.80
2024-03-12T13:26:14.679Z,1.15
2024-03-12T13:28:46.531Z,0.40
2024-03-12T13:31:14.021Z,1.67
2024-03-12T13:33:41.605Z,1.25
2024-03-12T13:36:11.118Z,0.35
2024-03-12T13:38:40.672Z,0.47
2024-03-12T13:41:11.265Z,0.65
2024-03-12T13:43:41.672Z,0.65
2024-03-12T13:46:08.642Z,2.97
2024-03-12T13:48:41.194Z,0.50
2024-03-12T13:51:09.178Z,0.85
2024-03-12T13:53:36.020Z,0.50
2024-03-12T13:56:03.683Z,2.15
2024-03-12T13:58:30.856Z,0.80
2024-03-12T14:00:59.169Z,0.50
2024-03-12T14:03:30.783Z,0.50
2024-03-12T14:05:58.542Z,1.73
2024-03-12T14:08:25.239Z,1.17
2024-03-12T14:10:53.004Z,0.60
2024-03-12T14:13:22.697Z,2.15
2024-03-12T14:15:49.811Z,1.85
2024-03-12T14:18:22.833Z,1.23
2024-03-12T14:20:52.620Z,3.97
2024-03-12T14:23:20.031Z,0.57
2024-03-12T14:25:46.864Z,1.40
2024-03-12T14:28:13.623Z,0.60
2024-03-12T14:30:40.388Z,0.98
2024-03-12T14:33:07.457Z,2.63
2024-03-12T14:35:34.115Z,1.20
2024-03-12T14:38:00.996Z,1.77
2024-03-12T14:40:27.836Z,2.25
2024-03-12T14:42:55.904Z,0.85
2024-03-12T14:45:25.976Z,1.42
2024-03-12T14:47:52.695Z,3.53
2024-03-12T14:50:19.558Z,1.08
2024-03-12T14:52:47.021Z,0.68
2024-03-12T14:55:14.312Z,1.30
2024-03-12T14:57:42.057Z,0.95
2024-03-12T15:00:11.417Z,3.35
2024-03-12T15:02:38.490Z,1.10
2024-03-12T15:05:21.420Z,1.52
2024-03-12T15:07:48.244Z,1.00
2024-03-12T15:10:16.492Z,5.60
2024-03-12T15:12:44.633Z,0.50
2024-03-12T15:15:13.180Z,1.38
2024-03-12T15:17:40.768Z,4.75
2024-03-12T15:20:15.569Z,0.90
2024-03-12T15:22:46.674Z,0.93
2024-03-12T15:25:13.962Z,0.50
2024-03-12T15:27:42.991Z,2.47
2024-03-12T15:30:10.614Z,0.50
2024-03-12T15:32:39.307Z,1.77
2024-03-12T15:35:06.963Z,0.70
2024-03-12T15:37:33.747Z,1.00
2024-03-12T15:40:01.291Z,1.63
2024-03-12T15:42:29.245Z,5.20
2024-03-12T15:44:56.672Z,1.52
2024-03-12T15:47:23.912Z,1.15
2024-03-12T15:49:51.367Z,3.92
2024-03-12T15:52:18.665Z,1.33
2024-03-12T15:54:48.174Z,0.95
2024-03-12T15:57:18.189Z,1.98
2024-03-12T15:59:47.290Z,1.38
2024-03-12T16:02:14.856Z,0.80
2024-03-12T16:04:41.966Z,2.85
2024-03-12T16:07:08.834Z,0.98
2024-03-12T16:09:35.849Z,2.63
2024-03-12T16:12:02.512Z,1.55
2024-03-12T16:14:29.136Z,0.68
2024-03-12T16:16:56.344Z,1.20
2024-03-12T16:19:23.883Z,1.42
2024-03-12T16:21:50.932Z,1.23
2024-03-12T16:24:17.577Z,1.10
2024-03-12T16:26:44.267Z,3.22
2024-03-12T16:29:10.871Z,5.68
2024-03-12T16:31:37.551Z,2.40
2024-03-12T16:34:05.710Z,1.33
2024-03-12T16:36:35.546Z,1.98
2024-03-12T16:39:05.311Z,2.30
2024-03-12T16:41:32.247Z,1.63
2024-03-12T16:44:00.698Z,2.13
2024-03-12T16:46:27.294Z,1.35
2024-03-12T16:48:53.957Z,1.40
2024-03-12T16:51:20.575Z,1.88
2024-03-12T16:53:47.369Z,2.45
2024-03-12T16:58:45.599Z,12.97
2024-03-12T17:01:13.493Z,7.82
2024-03-12T17:03:41.574Z,3.47
2024-03-12T17:06:08.864Z,3.33
2024-03-12T17:08:35.739Z,2.28
2024-03-12T17:11:02.683Z,3.70
2024-03-12T17:13:29.609Z,1.95
2024-03-12T17:15:56.737Z,3.70
2024-03-12T17:18:24.264Z,1.50
2024-03-12T17:20:53.117Z,1.40
2024-03-12T17:23:19.980Z,1.50
2024-03-12T17:25:46.811Z,2.33
2024-03-12T17:28:14.455Z,2.88
2024-03-12T17:30:41.416Z,0.70
2024-03-12T17:33:08.737Z,1.33
2024-03-12T17:35:36.558Z,1.50
2024-03-12T17:38:03.869Z,1.20
2024-03-12T17:40:33.699Z,5.45
2024-03-12T17:43:01.772Z,2.70
2024-03-12T17:45:28.633Z,1.48
2024-03-12T17:47:58.258Z,2.22
2024-03-12T17:50:28.419Z,4.18
2024-03-12T17:52:59.696Z,2.38
2024-03-12T17:55:27.925Z,7.35
2024-03-12T17:57:55.993Z,1.35
2024-03-12T18:00:23.091Z,1.33
2024-03-12T18:02:50.905Z,1.02
2024-03-12T18:05:20.623Z,3.22
2024-03-12T18:07:49.180Z,15.52
2024-03-12T18:10:17.878Z,4.85
2024-03-12T18:12:46.369Z,2.75
2024-03-12T18:15:16.174Z,3.30
2024-03-12T18:17:44.433Z,1.35
2024-03-12T18:20:31.088Z,3.67
2024-03-12T18:22:58.609Z,1.75
2024-03-12T18:25:25.560Z,1.45
2024-03-12T18:27:54.556Z,2.38
2024-03-12T18:30:21.519Z,1.42
2024-03-12T18:32:51.514Z,3.38
2024-03-12T18:35:19.905Z,2.35
2024-03-12T18:37:46.750Z,2.40
2024-03-12T18:40:18.772Z,5.68
2024-03-12T18:45:19.909Z,2.75
2024-03-12T18:47:51.187Z,4.13
2024-03-12T18:50:19.206Z,1.98
2024-03-12T18:52:46.893Z,6.75
2024-03-12T18:55:14.456Z,7.03
2024-03-12T18:57:43.400Z,5.03
2024-03-12T19:00:24.158Z,2.55
2024-03-12T19:02:52.911Z,1.60
2024-03-12T19:05:25.456Z,2.53
2024-03-12T19:07:53.084Z,2.50
2024-03-12T19:10:21.866Z,1.77
2024-03-12T19:12:49.207Z,1.10
2024-03-12T19:15:22.691Z,0.80
2024-03-12T19:17:51.962Z,1.25
2024-03-12T19:20:20.532Z,1.13
2024-03-12T19:22:52.223Z,2.55
2024-03-12T19:25:20.052Z,4.25
2024-03-12T19:27:48.892Z,3.78
2024-03-12T19:30:20.565Z,6.40
2024-03-12T19:32:49.463Z,5.28
2024-03-12T19:35:16.692Z,4.90
2024-03-12T19:37:44.840Z,8.20
2024-03-12T19:40:18.868Z,8.32
2024-03-12T19:42:47.669Z,10.32
2024-03-12T19:45:18.970Z,11.15
2024-03-12T19:47:49.719Z,18.90
2024-03-12T19:50:17.807Z,11.80
2024-03-12T19:52:47.395Z,5.55
2024-03-12T19:55:19.945Z,3.58
2024-03-12T19:57:56.148Z,3.83
2024-03-12T20:00:33.703Z,3.83
2024-03-12T20:03:05.949Z,4.85
2024-03-12T20:05:33.504Z,4.75
2024-03-12T20:08:05.575Z,3.72
2024-03-12T20:10:33.370Z,2.85
2024-03-12T20:13:00.661Z,4.53
2024-03-12T20:15:29.060Z,3.17
2024-03-12T20:17:56.313Z,7.07
2024-03-12T20:20:24.073Z,5.65
2024-03-12T20:22:54.605Z,4.10
2024-03-12T20:25:25.459Z,10.73
2024-03-12T20:27:56.405Z,10.02
2024-03-12T20:30:29.092Z,15.27
2024-03-12T20:32:59.000Z,16.73
2024-03-12T20:35:28.473Z,5.80
2024-03-12T20:37:56.300Z,6.20
2024-03-12T20:40:26.042Z,3.28
2024-03-12T20:42:53.779Z,2.53
2024-03-12T20:45:22.603Z,1.83
2024-03-12T20:47:49.987Z,1.63
2024-03-12T20:50:20.303Z,1.38
2024-03-12T20:52:48.068Z,1.92
2024-03-12T20:55:15.649Z,3.78
2024-03-12T20:57:49.318Z,3.80
2024-03-12T21:00:19.081Z,2.78
2024-03-12T21:02:49.491Z,7.35
2024-03-12T21:05:16.937Z,2.15
2024-03-12T21:07:44.677Z,3.03
2024-03-12T21:10:12.576Z,2.92
2024-03-12T21:12:43.547Z,5.13
2024-03-12T21:15:10.945Z,3.40
2024-03-12T21:17:37.895Z,2.67
2024-03-12T21:20:13.558Z,3.42
2024-03-12T21:22:40.476Z,4.35
2024-03-12T21:25:08.141Z,3.80
2024-03-12T21:27:35.105Z,4.32
2024-03-12T21:30:06.336Z,5.20
2024-03-12T21:32:33.523Z,2.77
2024-03-12T21:35:00.727Z,3.70
2024-03-12T21:37:27.511Z,2.42
2024-03-12T21:39:54.151Z,4.03
2024-03-12T21:42:23.110Z,4.82
2024-03-12T21:44:49.804Z,2.08
2024-03-12T21:47:16.438Z,3.65
2024-03-12T21:49:43.088Z,5.60
2024-03-12T21:52:09.825Z,3.15
2024-03-12T21:54:36.599Z,3.38
2024-03-12T21:57:03.305Z,3.55
2024-03-12T21:59:31.070Z,3.40
2024-03-12T22:02:00.428Z,2.83
2024-03-12T22:04:27.403Z,4.75
2024-03-12T22:06:55.589Z,2.47
2024-03-12T22:09:23.066Z,3.47
2024-03-12T22:11:51.320Z,5.25
2024-03-12T22:14:20.851Z,2.80
2024-03-12T22:16:47.538Z,3.53
2024-03-12T22:19:15.426Z,4.22
2024-03-12T22:21:48.823Z,2.85
2024-03-12T22:24:23.045Z,2.42
2024-03-12T22:26:51.742Z,3.05
2024-03-12T22:29:19.033Z,3.25
2024-03-12T22:31:46.276Z,3.00
2024-03-12T22:34:12.892Z,1.63
2024-03-12T22:36:39.619Z,2.25
2024-03-12T22:39:06.639Z,3.97
2024-03-12T22:41:34.527Z,3.35
2024-03-12T22:44:01.785Z,2.50
2024-03-12T22:46:28.928Z,2.13
2024-03-12T22:48:56.101Z,2.08
2024-03-12T22:51:23.001Z,2.70
2024-03-12T22:53:49.830Z,1.98
2024-03-12T22:56:20.473Z,5.50
2024-03-12T22:58:47.781Z,2.83
2024-03-12T23:01:17.750Z,2.10
2024-03-12T23:03:45.707Z,1.65
2024-03-12T23:06:12.891Z,2.95
2024-03-12T23:08:40.046Z,2.35
2024-03-12T23:11:06.890Z,5.13
2024-03-12T23:13:35.240Z,4.28
2024-03-12T23:16:03.197Z,2.72
2024-03-12T23:18:31.362Z,2.28
2024-03-12T23:20:58.159Z,2.97
2024-03-12T23:23:24.983Z,4.35
2024-03-12T23:25:52.564Z,7.10
2024-03-12T23:28:21.457Z,4.13
2024-03-12T23:30:48.602Z,4.43
2024-03-12T23:33:15.653Z,2.88
2024-03-12T23:35:43.277Z,3.90
2024-03-12T23:38:12.412Z,3.38
2024-03-12T23:40:39.569Z,6.32
2024-03-12T23:43:06.624Z,5.10
2024-03-12T23:45:33.966Z,4.03
2024-03-12T23:48:03.457Z,3.40
2024-03-12T23:50:30.754Z,3.65
2024-03-12T23:52:57.558Z,4.30
2024-03-12T23:55:25.501Z,4.03
2024-03-12T23:57:54.164Z,4.90
